Time;durP1;ratioP1;P1;durP2;ratioP2;P2;SDS_P1;SDS_P2;PMS_P1;PMS_P2;Temp;Humidity;BMP_temperature;BMP_pressure;BME280_temperature;BME280_humidity;BME280_pressure;Samples;Min_cycle;Max_cycle;Signal;HPM_P1;HPM_P2
2024/03/08 00:03:57;;;;;;;16.10;12.90;;;;;;;-0.50;100.00;98788.84;15311768;19;20035;-87
2024/03/08 00:09:27;;;;;;;17.48;13.45;;;;;;;-0.54;100.00;98789.94;15347806;19;20054;-90
2024/03/08 00:15:04;;;;;;;14.77;13.18;;;;;;;-0.59;100.00;98790.19;15091101;19;5001446;-89
2024/03/08 00:20:46;;;;;;;14.40;12.90;;;;;;;-0.67;100.00;98780.03;15326626;19;20037;-87
2024/03/08 00:26:22;;;;;;;17.52;13.77;;;;;;;-0.74;100.00;98783.91;15291147;19;20014;-87
2024/03/08 00:37:56;;;;;;;18.00;13.40;;;;;;;-0.83;100.00;98776.47;15286458;19;20042;-87
2024/03/08 00:43:32;;;;;;;15.68;13.65;;;;;;;-0.87;100.00;98772.25;15282793;19;20067;-88
2024/03/08 00:49:01;;;;;;;16.20;14.13;;;;;;;-0.94;100.00;98769.06;15285387;19;20574;-88
2024/03/08 00:54:48;;;;;;;17.33;14.35;;;;;;;-0.99;100.00;98771.13;15305198;19;20430;-86
2024/03/08 01:00:31;;;;;;;17.83;13.98;;;;;;;-1.06;100.00;98770.59;15297304;19;20424;-87
2024/03/08 01:05:56;;;;;;;19.15;14.93;;;;;;;-1.11;100.00;98764.66;15298961;19;20494;-87
2024/03/08 01:11:31;;;;;;;15.98;14.27;;;;;;;-1.13;100.00;98756.81;15296508;19;20022;-87
2024/03/08 01:16:57;;;;;;;17.23;14.88;;;;;;;-1.21;100.00;98747.56;15299795;19;20027;-86
2024/03/08 01:22:22;;;;;;;15.75;14.15;;;;;;;-1.30;100.00;98760.34;15296005;19;20025;-87
2024/03/08 01:27:53;;;;;;;18.77;15.00;;;;;;;-1.39;100.00;98750.22;15303059;19;20035;-86
2024/03/08 01:33:22;;;;;;;17.42;14.90;;;;;;;-1.45;100.00;98739.97;15293185;19;20010;-87
2024/03/08 01:38:50;;;;;;;18.23;15.70;;;;;;;-1.50;100.00;98734.06;15304019;19;20093;-88
2024/03/08 01:44:25;;;;;;;20.60;16.05;;;;;;;-1.58;100.00;98730.00;15302363;19;20026;-87
2024/03/08 01:49:57;;;;;;;19.08;15.60;;;;;;;-1.63;100.00;98726.75;15300914;19;20524;-87
2024/03/08 01:55:26;;;;;;;17.35;15.20;;;;;;;-1.68;100.00;98725.28;15311082;19;20014;-87
2024/03/08 02:00:58;;;;;;;20.55;17.15;;;;;;;-1.75;100.00;98707.06;15303747;19;20018;-88
2024/03/08 02:06:28;;;;;;;18.50;15.85;;;;;;;-1.78;100.00;98709.91;15302684;19;20050;-87
2024/03/08 02:30:17;;;;;;;19.63;16.30;;;;;;;-1.95;100.00;98697.53;15306245;19;20437;-84
2024/03/08 02:35:47;;;;;;;21.15;16.90;;;;;;;-1.98;100.00;98699.44;15307688;19;20137;-86
2024/03/08 02:41:03;;;;;;;23.08;17.50;;;;;;;-2.03;100.00;98692.63;15296947;19;20738;-85
2024/03/08 02:46:32;;;;;;;18.92;16.92;;;;;;;-2.05;100.00;98688.31;15316088;19;20059;-86
2024/03/08 02:51:57;;;;;;;21.30;17.05;;;;;;;-2.06;100.00;98691.91;15307307;19;20015;-84
2024/03/08 02:57:22;;;;;;;20.77;17.75;;;;;;;-2.09;100.00;98684.16;15307803;19;20027;-85
2024/03/08 03:15:18;;;;;;;21.88;19.38;;;;;;;-1.93;100.00;98677.16;15292163;19;20414;-86
2024/03/08 03:21:08;;;;;;;22.67;20.02;;;;;;;-1.90;100.00;98684.94;15294608;19;20010;-86
2024/03/08 03:27:10;;;;;;;23.27;18.90;;;;;;;-1.93;100.00;98671.88;15306327;19;20011;-86
2024/03/08 03:32:50;;;;;;;22.98;18.77;;;;;;;-1.94;100.00;98669.31;15303458;19;20408;-87
2024/03/08 03:38:15;;;;;;;20.75;18.48;;;;;;;-2.00;100.00;98659.91;15315755;19;20011;-88
2024/03/08 03:43:49;;;;;;;21.15;18.05;;;;;;;-2.08;100.00;98662.09;15299387;19;20041;-88
2024/03/08 03:49:16;;;;;;;20.58;17.77;;;;;;;-2.18;100.00;98666.97;15293855;19;20014;-51
2024/03/08 03:54:42;;;;;;;23.95;19.88;;;;;;;-2.26;100.00;98659.41;15290907;19;20078;-50
2024/03/08 04:00:10;;;;;;;22.88;19.60;;;;;;;-2.32;100.00;98654.44;15277773;19;20049;-53
2024/03/08 04:05:39;;;;;;;22.27;19.70;;;;;;;-2.35;100.00;98654.59;15291069;19;20110;-53
2024/03/08 04:11:05;;;;;;;20.38;18.23;;;;;;;-2.41;100.00;98654.91;15279978;19;20035;-50
2024/03/08 04:16:29;;;;;;;24.98;21.27;;;;;;;-2.42;100.00;98645.28;15290130;19;20406;-52
2024/03/08 04:21:50;;;;;;;23.13;19.77;;;;;;;-2.40;100.00;98648.66;15282035;19;20082;-50
2024/03/08 04:27:16;;;;;;;23.98;20.38;;;;;;;-2.45;100.00;98650.69;15300257;19;20770;-49
2024/03/08 04:32:41;;;;;;;23.55;20.42;;;;;;;-2.52;100.00;98648.31;15306059;19;20018;-51
2024/03/08 04:38:09;;;;;;;26.67;21.80;;;;;;;-2.57;100.00;98645.06;15300740;19;20014;-49
2024/03/08 04:43:30;;;;;;;30.25;22.63;;;;;;;-2.54;100.00;98644.06;15298129;19;20018;-48
2024/03/08 04:48:54;;;;;;;29.38;23.10;;;;;;;-2.52;100.00;98647.47;15290658;19;20015;-54
2024/03/08 04:54:28;;;;;;;27.17;21.48;;;;;;;-2.55;100.00;98635.31;15299276;19;20749;-80
2024/03/08 04:59:46;;;;;;;25.55;22.08;;;;;;;-2.60;100.00;98626.75;15306045;19;20015;-81
2024/03/08 05:05:06;;;;;;;27.08;21.70;;;;;;;-2.65;100.00;98626.97;15309809;19;20026;-81
2024/03/08 05:10:34;;;;;;;27.45;21.88;;;;;;;-2.70;100.00;98628.94;15299719;19;20022;-80
2024/03/08 05:16:00;;;;;;;25.80;21.52;;;;;;;-2.76;100.00;98617.88;15302504;19;20497;-81
2024/03/08 05:21:25;;;;;;;27.45;22.00;;;;;;;-2.81;100.00;98626.84;15308956;19;20078;-80
2024/03/08 05:26:52;;;;;;;28.52;23.30;;;;;;;-2.83;100.00;98628.69;15310088;19;20015;-80
2024/03/08 05:32:17;;;;;;;28.17;23.33;;;;;;;-2.85;100.00;98635.81;15301258;19;20389;-80
2024/03/08 05:37:42;;;;;;;30.00;23.88;;;;;;;-2.85;100.00;98633.16;15295177;19;20423;-79
2024/03/08 05:43:11;;;;;;;30.17;24.42;;;;;;;-2.83;100.00;98633.97;15295447;19;20007;-79
2024/03/08 05:48:35;;;;;;;27.17;22.88;;;;;;;-2.82;100.00;98640.06;15295492;19;20090;-80
2024/03/08 05:54:01;;;;;;;29.35;24.13;;;;;;;-2.80;100.00;98633.81;15294417;19;20583;-80
2024/03/08 05:59:28;;;;;;;29.10;24.33;;;;;;;-2.76;100.00;98634.53;15296366;19;20022;-79
2024/03/08 06:04:53;;;;;;;30.75;25.42;;;;;;;-2.71;100.00;98626.41;15294752;19;20010;-79
2024/03/08 06:10:18;;;;;;;31.52;26.02;;;;;;;-2.58;100.00;98627.53;15289187;19;20026;-80
2024/03/08 06:15:45;;;;;;;31.70;26.48;;;;;;;-2.48;100.00;98628.78;15305326;19;20010;-79
2024/03/08 06:21:11;;;;;;;30.08;25.40;;;;;;;-2.38;100.00;98628.34;15294842;19;20078;-80
2024/03/08 06:26:37;;;;;;;32.05;24.52;;;;;;;-2.31;100.00;98635.03;15298046;19;20010;-80
2024/03/08 06:32:04;;;;;;;31.23;25.08;;;;;;;-2.29;100.00;98627.88;15331607;19;20031;-79
2024/03/08 06:37:29;;;;;;;30.38;24.38;;;;;;;-2.27;100.00;98630.47;15359230;19;20058;-81
2024/03/08 06:42:54;;;;;;;28.08;23.48;;;;;;;-2.25;100.00;98618.91;15292367;19;20766;-82
2024/03/08 06:48:22;;;;;;;28.67;24.17;;;;;;;-2.21;100.00;98630.16;15292898;19;20014;-82
2024/03/08 06:53:46;;;;;;;29.73;23.77;;;;;;;-2.17;100.00;98632.56;15296999;19;20032;-82
2024/03/08 06:59:11;;;;;;;31.00;25.15;;;;;;;-2.08;100.00;98633.06;15295154;19;20011;-81
2024/03/08 07:04:38;;;;;;;30.73;24.95;;;;;;;-1.98;100.00;98631.66;15296718;19;20476;-80
2024/03/08 07:10:03;;;;;;;28.13;24.33;;;;;;;-1.88;100.00;98630.25;15300900;19;20429;-80
2024/03/08 07:15:28;;;;;;;32.45;25.88;;;;;;;-1.77;100.00;98623.56;15301584;19;20644;-83
2024/03/08 07:20:56;;;;;;;33.80;25.80;;;;;;;-1.65;100.00;98616.81;15293050;19;20521;-82
2024/03/08 07:26:24;;;;;;;31.45;26.63;;;;;;;-1.50;100.00;98621.28;15303473;19;20007;-81
2024/03/08 07:32:01;;;;;;;35.50;27.60;;;;;;;-1.29;100.00;98613.16;15298948;19;20037;-81
2024/03/08 07:37:28;;;;;;;35.75;27.85;;;;;;;-1.05;100.00;98616.28;15295471;19;20014;-82
2024/03/08 07:42:53;;;;;;;32.03;25.38;;;;;;;-0.75;100.00;98606.75;15295433;19;20077;-84
2024/03/08 07:48:17;;;;;;;31.05;23.90;;;;;;;-0.46;100.00;98607.75;15301320;19;20028;-80
2024/03/08 07:53:45;;;;;;;30.77;22.58;;;;;;;-0.18;100.00;98593.78;15297090;19;20025;-80
2024/03/08 07:59:11;;;;;;;27.52;22.10;;;;;;;0.09;100.00;98587.81;15294875;19;20106;-81
2024/03/08 08:04:36;;;;;;;30.13;21.83;;;;;;;0.36;100.00;98581.78;15292352;19;20014;-80
2024/03/08 08:10:06;;;;;;;25.48;20.55;;;;;;;0.58;100.00;98578.69;15289626;19;20022;-79
2024/03/08 08:15:31;;;;;;;26.77;20.58;;;;;;;0.78;100.00;98571.28;15292796;19;20057;-80
2024/03/08 08:20:55;;;;;;;24.13;19.60;;;;;;;0.96;100.00;98563.13;15289860;19;20074;-79
2024/03/08 08:26:35;;;;;;;25.48;19.08;;;;;;;1.13;100.00;98557.59;15310862;19;20086;-81
2024/03/08 08:32:00;;;;;;;24.83;19.00;;;;;;;1.27;100.00;98548.75;15304747;19;20104;-82
2024/03/08 08:37:25;;;;;;;23.55;19.25;;;;;;;1.46;100.00;98547.56;15296192;19;20373;-81
2024/03/08 08:42:52;;;;;;;21.70;18.23;;;;;;;1.66;100.00;98548.91;15290879;19;20018;-80
2024/03/08 08:48:17;;;;;;;21.02;16.88;;;;;;;1.85;100.00;98546.72;15291906;19;20100;-80
2024/03/08 08:53:48;;;;;;;20.40;16.52;;;;;;;2.07;100.00;98539.09;15294282;19;20023;-80
2024/03/08 08:59:19;;;;;;;17.63;15.75;;;;;;;2.26;100.00;98539.53;15289721;19;20010;-81
2024/03/08 09:04:43;;;;;;;18.88;15.38;;;;;;;2.43;100.00;98542.84;15290029;19;20026;-82
2024/03/08 09:10:09;;;;;;;19.33;14.98;;;;;;;2.65;100.00;98514.72;15292791;19;20031;-82
2024/03/08 09:15:40;;;;;;;18.67;15.73;;;;;;;2.83;100.00;98512.56;15343795;19;20035;-82
2024/03/08 09:21:09;;;;;;;17.52;12.98;;;;;;;3.05;100.00;98495.91;15314079;19;20023;-81
2024/03/08 09:26:33;;;;;;;16.85;14.40;;;;;;;3.28;100.00;98499.53;15303594;19;20018;-82
2024/03/08 09:32:01;;;;;;;17.52;12.82;;;;;;;3.47;100.00;98487.53;15292185;19;20018;-82
2024/03/08 09:37:25;;;;;;;16.13;13.63;;;;;;;3.64;100.00;98480.94;15302134;19;20388;-81
2024/03/08 09:42:52;;;;;;;15.40;12.57;;;;;;;3.84;100.00;98476.75;15304121;19;20029;-82
2024/03/08 09:48:20;;;;;;;14.80;11.68;;;;;;;4.02;100.00;98477.13;15310779;19;20551;-81
2024/03/08 09:53:46;;;;;;;13.32;11.52;;;;;;;4.15;100.00;98463.72;15316584;19;20493;-81
2024/03/08 09:59:41;;;;;;;14.95;11.30;;;;;;;4.27;100.00;98452.09;15297418;19;20074;-81
2024/03/08 10:05:11;;;;;;;14.18;12.00;;;;;;;4.41;100.00;98442.16;15296783;19;20027;-81
2024/03/08 10:10:35;;;;;;;13.55;12.15;;;;;;;4.54;100.00;98444.69;15293735;19;20353;-81
2024/03/08 10:16:02;;;;;;;16.00;12.10;;;;;;;4.70;100.00;98441.66;15301610;19;20659;-81
2024/03/08 10:21:29;;;;;;;14.25;11.77;;;;;;;4.84;100.00;98417.38;15296018;19;20014;-82
2024/03/08 10:26:56;;;;;;;13.75;11.38;;;;;;;5.04;100.00;98414.88;15311886;19;20552;-85
2024/03/08 10:32:20;;;;;;;13.68;11.70;;;;;;;5.12;100.00;98417.75;15300689;19;20066;-81
2024/03/08 10:37:58;;;;;;;13.30;11.90;;;;;;;5.27;100.00;98410.31;15307624;19;20032;-82
2024/03/08 10:43:36;;;;;;;16.10;11.95;;;;;;;5.47;100.00;98408.63;15295997;19;20487;-83
2024/03/08 10:49:07;;;;;;;12.82;11.00;;;;;;;5.61;100.00;98404.78;15307740;19;20814;-82
2024/03/08 10:54:35;;;;;;;13.85;11.55;;;;;;;5.78;100.00;98403.34;15302536;19;20014;-85
2024/03/08 11:00:04;;;;;;;11.40;9.90;;;;;;;5.98;100.00;98395.44;15303831;19;20010;-84
2024/03/08 11:05:41;;;;;;;12.07;9.63;;;;;;;6.22;100.00;98386.28;15302166;19;20514;-82
2024/03/08 11:11:27;;;;;;;13.57;10.38;;;;;;;6.44;100.00;98377.22;15301611;19;20014;-82
2024/03/08 11:16:54;;;;;;;12.68;9.70;;;;;;;6.59;100.00;98366.97;15309816;19;20006;-82
2024/03/08 11:22:31;;;;;;;12.02;10.63;;;;;;;6.76;100.00;98363.63;15309531;19;20027;-81
2024/03/08 11:28:20;;;;;;;11.40;10.18;;;;;;;6.93;100.00;98350.53;15316650;19;20010;-83
2024/03/08 11:33:49;;;;;;;12.55;10.25;;;;;;;7.04;100.00;98352.25;15289432;19;20383;-82
2024/03/08 11:39:14;;;;;;;14.52;11.07;;;;;;;7.12;100.00;98336.31;15296521;19;20085;-82
2024/03/08 11:44:44;;;;;;;11.43;10.23;;;;;;;7.21;100.00;98322.06;15307859;19;20022;-81
2024/03/08 11:50:10;;;;;;;12.48;11.18;;;;;;;7.28;100.00;98314.28;15307624;19;20063;-82
2024/03/08 11:55:36;;;;;;;12.57;10.93;;;;;;;7.42;100.00;98315.69;15314684;19;20018;-81
2024/03/08 12:01:12;;;;;;;13.18;10.77;;;;;;;7.61;100.00;98297.88;15312661;19;20050;-82
2024/03/08 12:06:42;;;;;;;11.80;10.35;;;;;;;7.78;100.00;98282.84;15317238;19;20081;-81
2024/03/08 12:12:07;;;;;;;10.63;9.45;;;;;;;7.99;100.00;98278.09;15310870;19;20010;-82
2024/03/08 12:17:38;;;;;;;11.70;9.18;;;;;;;8.15;100.00;98260.53;15328466;19;20505;-82
2024/03/08 12:22:59;;;;;;;10.77;9.63;;;;;;;8.33;100.00;98256.03;15354950;19;20015;-82
2024/03/08 12:28:24;;;;;;;10.25;8.40;;;;;;;8.50;100.00;98253.56;15294750;19;20400;-81
2024/03/08 12:33:58;;;;;;;11.65;9.70;;;;;;;8.63;100.00;98237.06;15288258;19;20010;-81
2024/03/08 12:39:26;;;;;;;9.55;8.57;;;;;;;8.81;100.00;98234.34;15287359;19;20494;-80
2024/03/08 12:44:51;;;;;;;10.18;9.00;;;;;;;8.94;100.00;98226.75;15287073;19;20011;-81
2024/03/08 12:50:16;;;;;;;9.30;8.30;;;;;;;9.09;100.00;98216.28;15303009;19;20025;-82
2024/03/08 12:55:43;;;;;;;9.90;8.45;;;;;;;9.30;100.00;98207.00;15305838;19;20074;-80
2024/03/08 13:01:10;;;;;;;10.50;8.40;;;;;;;9.40;100.00;98198.84;15308229;19;20019;-83
2024/03/08 13:06:35;;;;;;;10.27;8.77;;;;;;;9.49;100.00;98192.50;15312727;19;20018;-81
2024/03/08 13:12:03;;;;;;;9.80;8.55;;;;;;;9.59;100.00;98180.75;15303647;19;20078;-81
2024/03/08 13:17:29;;;;;;;10.23;8.50;;;;;;;9.63;100.00;98171.38;15316455;19;20350;-81
2024/03/08 13:22:55;;;;;;;9.20;8.30;;;;;;;9.83;100.00;98163.91;15306340;19;20028;-82
2024/03/08 13:28:27;;;;;;;8.80;7.60;;;;;;;9.99;100.00;98155.03;15310539;19;20045;-81
2024/03/08 13:33:57;;;;;;;8.95;8.05;;;;;;;10.16;100.00;98151.38;15304630;19;20024;-81
2024/03/08 13:39:25;;;;;;;8.20;7.30;;;;;;;10.34;100.00;98134.22;15307507;19;20023;-81
2024/03/08 13:44:53;;;;;;;8.27;7.47;;;;;;;10.61;100.00;98134.97;15304750;19;20019;-82
2024/03/08 13:50:21;;;;;;;8.05;7.20;;;;;;;10.77;100.00;98139.50;15296289;19;20054;-79
2024/03/08 13:55:56;;;;;;;8.10;7.30;;;;;;;11.04;100.00;98113.19;15304675;19;20018;-80
2024/03/08 14:01:25;;;;;;;7.85;6.47;;;;;;;11.24;100.00;98100.13;15312439;19;20011;-82
2024/03/08 14:06:51;;;;;;;7.03;6.10;;;;;;;11.35;100.00;98091.66;15308972;19;20015;-83
2024/03/08 14:12:27;;;;;;;7.90;5.65;;;;;;;11.61;100.00;98087.03;15312838;19;20062;-81
2024/03/08 14:17:59;;;;;;;8.35;6.10;;;;;;;11.92;100.00;98078.91;15318437;19;20031;-82
2024/03/08 14:23:27;;;;;;;6.07;5.47;;;;;;;12.00;100.00;98070.78;15310385;19;20018;-79
2024/03/08 14:28:54;;;;;;;6.80;5.47;;;;;;;11.87;100.00;98065.09;15310654;19;20372;-81
2024/03/08 14:34:22;;;;;;;6.68;5.38;;;;;;;12.10;100.00;98056.22;15303595;19;20074;-77
2024/03/08 14:39:48;;;;;;;6.05;5.25;;;;;;;12.21;100.00;98055.78;15308995;19;20019;-79
2024/03/08 14:45:15;;;;;;;5.57;4.70;;;;;;;12.35;100.00;98045.22;15297400;19;20025;-79
2024/03/08 14:50:44;;;;;;;5.35;4.85;;;;;;;12.39;100.00;98041.97;15300149;19;20098;-79
2024/03/08 14:56:17;;;;;;;6.95;5.10;;;;;;;12.32;100.00;98031.03;15040130;19;5001760;-83
2024/03/08 15:01:44;;;;;;;5.93;5.20;;;;;;;12.30;100.00;98035.78;15288967;19;20035;-81
2024/03/08 15:07:13;;;;;;;5.85;5.25;;;;;;;12.32;100.00;98014.84;15302207;19;20014;-80
2024/03/08 15:12:39;;;;;;;6.00;5.40;;;;;;;12.34;100.00;98011.97;15035500;19;5001434;-84
2024/03/08 15:18:10;;;;;;;6.07;5.47;;;;;;;12.42;100.00;98008.31;15296827;19;20014;-78
2024/03/08 15:23:43;;;;;;;5.93;5.32;;;;;;;12.38;100.00;98007.03;15294978;19;20019;-80
2024/03/08 15:29:09;;;;;;;7.90;5.40;;;;;;;12.29;100.00;97996.28;15295249;19;20022;-81
2024/03/08 15:34:37;;;;;;;6.00;5.40;;;;;;;12.28;100.00;97994.63;15291815;19;20016;-79
2024/03/08 15:40:06;;;;;;;6.22;5.40;;;;;;;12.30;100.00;97992.56;15297716;19;20082;-82
2024/03/08 15:45:32;;;;;;;5.70;5.20;;;;;;;12.27;100.00;97982.16;15316145;19;20015;-81
2024/03/08 15:50:56;;;;;;;7.10;5.47;;;;;;;12.26;100.00;97980.47;15346933;19;20484;-81
2024/03/08 15:56:31;;;;;;;6.45;5.75;;;;;;;12.20;100.00;97973.09;15286744;19;20013;-81
2024/03/08 16:01:57;;;;;;;6.70;6.10;;;;;;;12.01;100.00;97969.03;15289515;19;20022;-81
2024/03/08 16:07:22;;;;;;;8.55;6.22;;;;;;;11.84;100.00;97982.63;15291356;19;20033;-79
2024/03/08 16:12:49;;;;;;;7.43;6.63;;;;;;;11.65;100.00;97977.69;15289301;19;20034;-81
2024/03/08 16:18:15;;;;;;;6.90;6.30;;;;;;;11.40;100.00;97956.31;15303791;19;20014;-81
2024/03/08 16:23:40;;;;;;;8.93;7.10;;;;;;;11.10;100.00;97959.66;15304915;19;20011;-80
2024/03/08 16:29:07;;;;;;;8.00;7.05;;;;;;;10.80;100.00;97953.22;15315969;19;20488;-80
2024/03/08 16:34:34;;;;;;;8.60;7.43;;;;;;;10.46;100.00;97957.88;15297400;19;20022;-81
2024/03/08 16:39:59;;;;;;;10.95;9.82;;;;;;;10.18;100.00;97950.13;15298712;19;20035;-79
2024/03/08 16:45:27;;;;;;;21.55;17.90;;;;;;;9.80;100.00;97947.16;15042989;19;5000952;-79
2024/03/08 16:50:54;;;;;;;9.25;8.32;;;;;;;9.38;100.00;97948.97;15299163;19;20077;-80
2024/03/08 16:56:26;;;;;;;12.00;9.15;;;;;;;8.93;100.00;97945.66;15298872;19;20022;-80
2024/03/08 17:01:54;;;;;;;10.03;9.03;;;;;;;8.46;100.00;97935.34;15296323;19;20018;-81
2024/03/08 17:07:21;;;;;;;15.07;9.63;;;;;;;8.11;100.00;97939.84;15304653;19;20528;-80
2024/03/08 17:12:47;;;;;;;12.68;11.38;;;;;;;7.78;100.00;97945.78;15292913;19;20023;-81
2024/03/08 17:18:15;;;;;;;22.90;20.02;;;;;;;7.50;100.00;97953.94;15303655;19;20507;-79
2024/03/08 17:23:40;;;;;;;14.50;13.00;;;;;;;7.23;100.00;97953.00;15292834;19;20021;-80
2024/03/08 17:29:07;;;;;;;10.10;9.10;;;;;;;7.00;100.00;97946.41;15306644;19;20515;-81
2024/03/08 17:34:35;;;;;;;11.18;9.75;;;;;;;6.78;100.00;97949.31;15305740;19;20409;-81
2024/03/08 17:40:05;;;;;;;11.50;9.73;;;;;;;6.61;100.00;97953.63;15310343;19;20018;-80
2024/03/08 17:45:32;;;;;;;10.52;9.52;;;;;;;6.43;100.00;97944.72;15296311;19;20478;-81
2024/03/08 17:51:01;;;;;;;10.88;9.77;;;;;;;6.28;100.00;97941.66;15295798;19;20018;-82
2024/03/08 17:56:33;;;;;;;11.10;9.95;;;;;;;6.14;100.00;97942.94;15300028;19;20084;-81
2024/03/08 18:01:58;;;;;;;11.15;9.90;;;;;;;6.00;100.00;97947.75;15298105;19;20074;-80
2024/03/08 18:07:26;;;;;;;12.70;9.85;;;;;;;5.89;100.00;97947.91;15303463;19;20019;-79
2024/03/08 18:12:54;;;;;;;11.90;10.13;;;;;;;5.74;100.00;97942.16;15292973;19;20014;-82
2024/03/08 18:18:19;;;;;;;13.07;10.43;;;;;;;5.61;100.00;97938.94;15300396;19;20022;-83
2024/03/08 18:23:46;;;;;;;13.20;10.35;;;;;;;5.47;100.00;97941.03;15291597;19;20017;-83
2024/03/08 18:29:15;;;;;;;12.80;10.13;;;;;;;5.33;100.00;97930.78;15300725;19;20018;-80
2024/03/08 18:34:43;;;;;;;10.88;9.77;;;;;;;5.22;100.00;97926.44;15292103;19;20622;-81
2024/03/08 18:40:15;;;;;;;10.93;9.80;;;;;;;5.14;100.00;97911.09;15293809;19;20074;-84
2024/03/08 18:45:41;;;;;;;10.50;9.38;;;;;;;5.03;100.00;97906.75;15294734;19;20481;-81
2024/03/08 18:51:07;;;;;;;11.00;9.43;;;;;;;4.96;100.00;97918.94;15297614;19;20014;-81
2024/03/08 18:56:41;;;;;;;10.48;9.38;;;;;;;4.85;100.00;97914.59;15299877;19;20039;-81
2024/03/08 19:02:13;;;;;;;11.95;8.98;;;;;;;4.77;100.00;97919.75;15296312;19;20073;-80
2024/03/08 19:07:38;;;;;;;10.20;9.13;;;;;;;4.66;100.00;97918.03;15363891;19;20010;-81
2024/03/08 19:13:08;;;;;;;10.23;9.15;;;;;;;4.59;100.00;97912.41;15296693;19;20014;-81
2024/03/08 19:18:34;;;;;;;9.32;8.43;;;;;;;4.51;100.00;97917.59;15300697;19;20040;-82
2024/03/08 19:23:59;;;;;;;11.85;8.88;;;;;;;4.40;100.00;97909.69;15296937;19;20691;-81
2024/03/08 19:29:24;;;;;;;11.90;8.75;;;;;;;4.32;100.00;97908.53;15297255;19;20536;-81
2024/03/08 19:34:49;;;;;;;9.63;7.90;;;;;;;4.26;100.00;97886.88;15295679;19;20025;-80
2024/03/08 19:40:19;;;;;;;9.80;7.80;;;;;;;4.22;100.00;97882.81;15295511;19;20560;-81
2024/03/08 19:45:52;;;;;;;9.25;8.02;;;;;;;4.20;100.00;97880.25;15296682;19;20807;-81
2024/03/08 19:51:18;;;;;;;9.00;7.85;;;;;;;4.20;100.00;97890.94;15300172;19;20026;-81
2024/03/08 19:56:43;;;;;;;10.25;7.50;;;;;;;4.16;100.00;97894.84;15312663;19;20027;-81
2024/03/08 20:02:12;;;;;;;8.93;7.82;;;;;;;4.09;100.00;97891.03;15287012;19;20381;-84
2024/03/08 20:07:37;;;;;;;8.85;7.72;;;;;;;3.99;100.00;97883.00;15303438;19;20018;-82
2024/03/08 20:13:02;;;;;;;8.88;7.70;;;;;;;3.90;100.00;97879.31;15292163;19;20018;-82
2024/03/08 20:18:29;;;;;;;9.15;7.57;;;;;;;3.82;100.00;97881.78;15301315;19;20035;-81
2024/03/08 20:23:54;;;;;;;9.00;7.65;;;;;;;3.73;100.00;97882.56;15265853;19;20011;-81
2024/03/08 20:29:19;;;;;;;8.20;7.40;;;;;;;3.67;100.00;97875.94;15295607;19;20021;-82
2024/03/08 20:34:46;;;;;;;8.18;7.30;;;;;;;3.61;100.00;97874.63;15284354;19;20029;-81
2024/03/08 20:40:13;;;;;;;8.93;7.70;;;;;;;3.52;100.00;97880.75;15282977;19;20010;-80
2024/03/08 20:45:38;;;;;;;8.52;7.20;;;;;;;3.47;100.00;97886.47;15291952;19;20442;-81
2024/03/08 20:51:06;;;;;;;8.15;7.03;;;;;;;3.40;100.00;97887.97;15268215;19;20017;-80
2024/03/08 20:56:38;;;;;;;7.97;7.13;;;;;;;3.31;100.00;97878.94;15286486;19;20015;-79
2024/03/08 21:02:02;;;;;;;7.97;7.07;;;;;;;3.21;100.00;97865.53;15287139;19;20081;-80
2024/03/08 21:07:31;;;;;;;7.32;6.43;;;;;;;3.15;100.00;97858.09;15304960;19;20488;-80
2024/03/08 21:12:57;;;;;;;9.45;7.05;;;;;;;3.08;100.00;97852.44;15305128;19;20478;-81
2024/03/08 21:18:24;;;;;;;8.10;6.93;;;;;;;3.03;100.00;97843.13;15311482;19;20352;-81
2024/03/08 21:23:54;;;;;;;8.20;7.28;;;;;;;2.93;100.00;97845.72;15300907;19;20088;-81
2024/03/08 21:29:19;;;;;;;9.02;6.85;;;;;;;2.85;100.00;97841.00;15298255;19;20007;-81
2024/03/08 21:34:44;;;;;;;8.88;7.35;;;;;;;2.81;100.00;97838.75;15306744;19;20026;-80
2024/03/08 21:40:20;;;;;;;9.20;7.45;;;;;;;2.75;100.00;97832.97;15305942;19;20010;-81
2024/03/08 21:45:45;;;;;;;8.20;7.15;;;;;;;2.73;100.00;97834.91;15300003;19;20014;-80
2024/03/08 21:51:13;;;;;;;8.68;7.45;;;;;;;2.73;100.00;97832.25;15304432;19;20013;-81
2024/03/08 21:56:48;;;;;;;8.65;7.03;;;;;;;2.71;100.00;97828.00;15305328;19;20014;-82
2024/03/08 22:02:13;;;;;;;9.10;7.60;;;;;;;2.66;100.00;97819.56;15354767;19;20575;-81
2024/03/08 22:07:38;;;;;;;8.80;7.90;;;;;;;2.60;100.00;97810.28;15310451;19;20014;-81
2024/03/08 22:13:07;;;;;;;9.07;7.38;;;;;;;2.55;100.00;97799.16;15301629;19;20090;-81
2024/03/08 22:18:37;;;;;;;8.95;7.57;;;;;;;2.51;100.00;97797.75;15298332;19;20289;-82
2024/03/08 22:24:02;;;;;;;9.10;8.10;;;;;;;2.50;100.00;97793.41;15295815;19;20018;-81
2024/03/08 22:29:30;;;;;;;9.93;7.65;;;;;;;2.46;100.00;97788.31;15298445;19;20078;-81
2024/03/08 22:34:54;;;;;;;10.75;8.10;;;;;;;2.41;100.00;97790.50;15300300;19;20042;-82
2024/03/08 22:40:23;;;;;;;9.07;7.97;;;;;;;2.34;100.00;97789.31;15309787;19;20086;-81
2024/03/08 22:45:52;;;;;;;9.40;8.07;;;;;;;2.23;100.00;97782.25;15299292;19;20046;-82
2024/03/08 22:51:24;;;;;;;10.63;8.10;;;;;;;2.13;100.00;97787.44;15296534;19;20082;-82
2024/03/08 22:56:56;;;;;;;9.02;7.65;;;;;;;2.05;100.00;97789.88;15297226;19;20422;-82
2024/03/08 23:02:24;;;;;;;10.25;7.93;;;;;;;1.93;100.00;97801.50;15298280;19;20014;-82
2024/03/08 23:07:49;;;;;;;12.32;8.77;;;;;;;1.84;100.00;97787.94;15315539;19;20317;-82
2024/03/08 23:13:09;;;;;;;11.18;8.48;;;;;;;1.75;100.00;97788.69;15324397;19;20007;-82
2024/03/08 23:18:37;;;;;;;9.48;8.45;;;;;;;1.68;100.00;97784.84;15310752;19;20359;-77
2024/03/08 23:24:04;;;;;;;9.52;8.50;;;;;;;1.70;100.00;97788.22;15295097;19;20014;-78
2024/03/08 23:29:29;;;;;;;10.85;8.93;;;;;;;1.72;100.00;97788.09;15299171;19;20021;-79
2024/03/08 23:34:57;;;;;;;11.18;9.15;;;;;;;1.73;100.00;97785.31;15296303;19;20058;-82
2024/03/08 23:40:23;;;;;;;10.13;8.70;;;;;;;1.67;100.00;97781.31;15308697;19;20043;-81
2024/03/08 23:45:48;;;;;;;9.90;8.60;;;;;;;1.62;100.00;97783.50;15293678;19;20346;-82
2024/03/08 23:51:16;;;;;;;10.60;9.10;;;;;;;1.54;100.00;97781.44;15295604;19;20022;-82
2024/03/08 23:56:40;;;;;;;10.77;8.85;;;;;;;1.51;100.00;97780.84;15290970;19;20229;-81
